Time,TemperatureF,DewpointF,PressureIn,WindDirection,WindDirectionDegrees,WindSpeedMPH,WindSpeedGustMPH,Humidity,HourlyPrecipIn,Conditions,Clouds,dailyrainin,SoftwareType,DateUTC
2013-11-28 00:12:00,-999.0,-99.9,29.75,North,-999,-999.0,-999.0,-999,0.00,,,0.00,weatherlink.com 1.10,2013-11-28 05:12:00,
2013-11-28 00:27:00,-999.0,-99.9,29.75,North,-999,-999.0,-999.0,-999,0.00,,,0.00,weatherlink.com 1.10,2013-11-28 05:27:00,
2013-11-28 00:42:00,-999.0,-99.9,29.77,North,-999,-999.0,-999.0,-999,0.00,,,0.00,weatherlink.com 1.10,2013-11-28 05:42:00,
2013-11-28 00:57:00,-999.0,-99.9,29.77,North,-999,-999.0,-999.0,-999,0.00,,,0.00,weatherlink.com 1.10,2013-11-28 05:57:00,
2013-11-28 01:12:00,-999.0,-99.9,29.78,North,-999,-999.0,-999.0,-999,0.00,,,0.00,weatherlink.com 1.10,2013-11-28 06:12:00,
2013-11-28 01:27:00,-999.0,-99.9,29.79,North,-999,-999.0,-999.0,-999,0.00,,,0.00,weatherlink.com 1.10,2013-11-28 06:27:00,
2013-11-28 01:43:00,-999.0,-99.9,29.80,North,-999,-999.0,-999.0,-999,0.00,,,0.00,weatherlink.com 1.10,2013-11-28 06:43:00,
2013-11-28 01:58:00,-999.0,-99.9,29.81,North,-999,-999.0,-999.0,-999,0.00,,,0.00,weatherlink.com 1.10,2013-11-28 06:58:00,
2013-11-28 02:13:00,-999.0,-99.9,29.83,North,-999,-999.0,-999.0,-999,0.00,,,0.00,weatherlink.com 1.10,2013-11-28 07:13:00,
2013-11-28 02:28:00,-999.0,-99.9,29.85,North,-999,-999.0,-999.0,-999,0.00,,,0.00,weatherlink.com 1.10,2013-11-28 07:28:00,
2013-11-28 02:43:00,-999.0,-99.9,29.86,North,-999,-999.0,-999.0,-999,0.00,,,0.00,weatherlink.com 1.10,2013-11-28 07:43:00,
2013-11-28 02:58:00,-999.0,-99.9,29.88,North,-999,-999.0,-999.0,-999,0.00,,,0.00,weatherlink.com 1.10,2013-11-28 07:58:00,
2013-11-28 03:13:00,-999.0,-99.9,29.88,North,-999,-999.0,-999.0,-999,0.00,,,0.00,weatherlink.com 1.10,2013-11-28 08:13:00,
2013-11-28 03:28:00,-999.0,-99.9,29.89,North,-999,-999.0,-999.0,-999,0.00,,,0.00,weatherlink.com 1.10,2013-11-28 08:28:00,
2013-11-28 03:43:00,-999.0,-99.9,29.91,North,-999,-999.0,-999.0,-999,0.00,,,0.00,weatherlink.com 1.10,2013-11-28 08:43:00,
2013-11-28 03:58:00,-999.0,-99.9,29.93,North,-999,-999.0,-999.0,-999,0.00,,,0.00,weatherlink.com 1.10,2013-11-28 08:58:00,
2013-11-28 04:13:00,-999.0,-99.9,29.95,North,-999,-999.0,-999.0,-999,0.00,,,0.00,weatherlink.com 1.10,2013-11-28 09:13:00,
2013-11-28 04:28:00,-999.0,-99.9,29.96,North,-999,-999.0,-999.0,-999,0.00,,,0.00,weatherlink.com 1.10,2013-11-28 09:28:00,
2013-11-28 04:43:00,-999.0,-99.9,29.97,North,-999,-999.0,-999.0,-999,0.00,,,0.00,weatherlink.com 1.10,2013-11-28 09:43:00,
2013-11-28 04:59:00,-999.0,-99.9,29.98,North,-999,-999.0,-999.0,-999,0.00,,,0.00,weatherlink.com 1.10,2013-11-28 09:59:00,
2013-11-28 05:14:00,-999.0,-99.9,29.99,North,-999,-999.0,-999.0,-999,0.00,,,0.00,weatherlink.com 1.10,2013-11-28 10:14:00,
2013-11-28 05:29:00,-999.0,-99.9,30.00,North,-999,-999.0,-999.0,-999,0.00,,,0.00,weatherlink.com 1.10,2013-11-28 10:29:00,
2013-11-28 05:44:00,-999.0,-99.9,30.01,North,-999,-999.0,-999.0,-999,0.00,,,0.00,weatherlink.com 1.10,2013-11-28 10:44:00,
2013-11-28 05:59:00,-999.0,-99.9,30.03,North,-999,-999.0,-999.0,-999,0.00,,,0.00,weatherlink.com 1.10,2013-11-28 10:59:00,
2013-11-28 06:14:00,-999.0,-99.9,30.04,North,-999,-999.0,-999.0,-999,0.00,,,0.00,weatherlink.com 1.10,2013-11-28 11:14:00,
2013-11-28 06:29:00,-999.0,-99.9,30.06,North,-999,-999.0,-999.0,-999,0.00,,,0.00,weatherlink.com 1.10,2013-11-28 11:29:00,
2013-11-28 06:44:00,-999.0,-99.9,30.07,North,-999,-999.0,-999.0,-999,0.00,,,0.00,weatherlink.com 1.10,2013-11-28 11:44:00,
2013-11-28 06:59:00,-999.0,-99.9,30.09,North,-999,-999.0,-999.0,-999,0.00,,,0.00,weatherlink.com 1.10,2013-11-28 11:59:00,
2013-11-28 07:14:00,-999.0,-99.9,30.09,North,-999,-999.0,-999.0,-999,0.00,,,0.00,weatherlink.com 1.10,2013-11-28 12:14:00,
2013-11-28 07:29:00,-999.0,-99.9,30.11,North,-999,-999.0,-999.0,-999,0.00,,,0.00,weatherlink.com 1.10,2013-11-28 12:29:00,
2013-11-28 07:44:00,-999.0,-99.9,30.11,North,-999,-999.0,-999.0,-999,0.00,,,0.00,weatherlink.com 1.10,2013-11-28 12:44:00,
2013-11-28 07:59:00,28.8,12.0,30.12,SW,218,4.0,12.0,49,0.00,,,0.00,weatherlink.com 1.10,2013-11-28 12:59:00,
2013-11-28 08:14:00,29.2,12.0,30.13,WSW,246,4.0,8.0,49,0.00,,,0.00,weatherlink.com 1.10,2013-11-28 13:14:00,
2013-11-28 08:29:00,29.4,12.0,30.14,WNW,283,5.0,13.0,48,0.00,,,0.00,weatherlink.com 1.10,2013-11-28 13:29:00,
2013-11-28 08:44:00,29.8,12.0,30.15,WSW,253,5.0,13.0,48,0.00,,,0.00,weatherlink.com 1.10,2013-11-28 13:44:00,
2013-11-28 09:00:00,29.5,12.0,30.16,West,278,10.0,14.0,48,0.00,,,0.00,weatherlink.com 1.10,2013-11-28 14:00:00,
2013-11-28 09:15:00,29.5,12.0,30.18,SSW,204,4.0,17.0,48,0.00,,,0.00,weatherlink.com 1.10,2013-11-28 14:15:00,
2013-11-28 09:30:00,30.2,13.0,30.19,SSW,208,8.0,14.0,49,0.00,,,0.00,weatherlink.com 1.10,2013-11-28 14:30:00,
2013-11-28 09:45:00,29.8,13.0,30.19,West,274,3.0,17.0,49,0.00,,,0.00,weatherlink.com 1.10,2013-11-28 14:45:00,
2013-11-28 10:00:00,30.7,13.0,30.20,West,267,3.0,12.0,49,0.00,,,0.00,weatherlink.com 1.10,2013-11-28 15:00:00,
2013-11-28 10:15:00,30.5,13.0,30.20,West,265,9.0,21.0,48,0.00,,,0.00,weatherlink.com 1.10,2013-11-28 15:15:00,
2013-11-28 10:30:00,30.8,13.0,30.20,SW,229,5.0,18.0,47,0.00,,,0.00,weatherlink.com 1.10,2013-11-28 15:30:00,
2013-11-28 10:45:00,30.9,13.0,30.20,West,273,5.0,13.0,48,0.00,,,0.00,weatherlink.com 1.10,2013-11-28 15:45:00,
2013-11-28 11:00:00,31.4,13.0,30.20,West,270,9.0,14.0,47,0.00,,,0.00,weatherlink.com 1.10,2013-11-28 16:00:00,
2013-11-28 11:15:00,31.6,13.0,30.20,NNW,340,2.0,16.0,47,0.00,,,0.00,weatherlink.com 1.10,2013-11-28 16:15:00,
2013-11-28 11:30:00,31.4,13.0,30.20,WNW,300,15.0,22.0,46,0.00,,,0.00,weatherlink.com 1.10,2013-11-28 16:30:00,
2013-11-28 11:45:00,32.2,13.0,30.21,WNW,283,7.0,20.0,45,0.00,,,0.00,weatherlink.com 1.10,2013-11-28 16:45:00,
2013-11-28 12:00:00,32.8,13.0,30.21,West,260,9.0,11.0,44,0.00,,,0.00,weatherlink.com 1.10,2013-11-28 17:00:00,
2013-11-28 12:15:00,33.3,12.0,30.21,West,266,4.0,11.0,42,0.00,,,0.00,weatherlink.com 1.10,2013-11-28 17:15:00,
2013-11-28 12:30:00,33.4,12.0,30.21,WNW,297,3.0,14.0,42,0.00,,,0.00,weatherlink.com 1.10,2013-11-28 17:30:00,
2013-11-28 12:45:00,32.7,11.0,30.21,West,280,6.0,18.0,40,0.00,,,0.00,weatherlink.com 1.10,2013-11-28 17:45:00,
2013-11-28 13:00:00,33.4,12.0,30.21,South,187,8.0,12.0,41,0.00,,,0.00,weatherlink.com 1.10,2013-11-28 18:00:00,
2013-11-28 13:15:00,33.6,11.0,30.21,West,280,10.0,20.0,39,0.00,,,0.00,weatherlink.com 1.10,2013-11-28 18:15:00,
2013-11-28 13:30:00,33.2,12.0,30.22,WSW,240,9.0,14.0,41,0.00,,,0.00,weatherlink.com 1.10,2013-11-28 18:30:00,
2013-11-28 13:45:00,33.2,12.0,30.22,West,263,6.0,21.0,41,0.00,,,0.00,weatherlink.com 1.10,2013-11-28 18:45:00,
2013-11-28 14:00:00,33.3,11.0,30.22,West,276,8.0,13.0,40,0.00,,,0.00,weatherlink.com 1.10,2013-11-28 19:00:00,
2013-11-28 14:15:00,33.2,11.0,30.23,West,281,6.0,17.0,40,0.00,,,0.00,weatherlink.com 1.10,2013-11-28 19:15:00,
2013-11-28 14:30:00,33.6,12.0,30.23,West,279,4.0,14.0,41,0.00,,,0.00,weatherlink.com 1.10,2013-11-28 19:30:00,
2013-11-28 14:45:00,33.4,12.0,30.25,West,259,2.0,12.0,41,0.00,,,0.00,weatherlink.com 1.10,2013-11-28 19:45:00,
2013-11-28 15:00:00,33.4,12.0,30.26,WNW,293,5.0,13.0,41,0.00,,,0.00,weatherlink.com 1.10,2013-11-28 20:00:00,
2013-11-28 15:15:00,33.1,12.0,30.26,West,270,4.0,12.0,42,0.00,,,0.00,weatherlink.com 1.10,2013-11-28 20:15:00,
2013-11-28 15:30:00,33.1,12.0,30.26,WSW,247,1.0,9.0,41,0.00,,,0.00,weatherlink.com 1.10,2013-11-28 20:30:00,
2013-11-28 15:45:00,32.6,12.0,30.27,WNW,293,6.0,9.0,42,0.00,,,0.00,weatherlink.com 1.10,2013-11-28 20:45:00,
2013-11-28 16:00:00,32.1,12.0,30.27,West,280,4.0,11.0,43,0.00,,,0.00,weatherlink.com 1.10,2013-11-28 21:00:00,
2013-11-28 16:15:00,31.7,12.0,30.28,WNW,293,2.0,9.0,44,0.00,,,0.00,weatherlink.com 1.10,2013-11-28 21:15:00,
2013-11-28 16:30:00,31.4,12.0,30.29,West,281,6.0,8.0,45,0.00,,,0.00,weatherlink.com 1.10,2013-11-28 21:30:00,
2013-11-28 16:45:00,31.2,12.0,30.30,WNW,288,2.0,7.0,45,0.00,,,0.00,weatherlink.com 1.10,2013-11-28 21:45:00,
2013-11-28 17:00:00,30.6,12.0,30.31,West,276,1.0,4.0,47,0.00,,,0.00,weatherlink.com 1.10,2013-11-28 22:00:00,
2013-11-28 17:15:00,29.8,14.0,30.32,West,281,0.0,3.0,51,0.00,,,0.00,weatherlink.com 1.10,2013-11-28 22:15:00,
2013-11-28 17:31:00,28.7,13.0,30.32,West,281,0.0,1.0,52,0.00,,,0.00,weatherlink.com 1.10,2013-11-28 22:31:00,
2013-11-28 17:46:00,28.3,13.0,30.33,WNW,283,1.0,2.0,53,0.00,,,0.00,weatherlink.com 1.10,2013-11-28 22:46:00,
2013-11-28 18:01:00,28.0,13.0,30.34,West,278,0.0,2.0,54,0.00,,,0.00,weatherlink.com 1.10,2013-11-28 23:01:00,
2013-11-28 18:16:00,26.5,14.0,30.35,West,278,0.0,0.0,60,0.00,,,0.00,weatherlink.com 1.10,2013-11-28 23:16:00,
2013-11-28 18:31:00,25.4,15.0,30.36,West,278,0.0,0.0,65,0.00,,,0.00,weatherlink.com 1.10,2013-11-28 23:31:00,
2013-11-28 18:46:00,24.7,16.0,30.36,SW,229,1.0,1.0,69,0.00,,,0.00,weatherlink.com 1.10,2013-11-28 23:46:00,
2013-11-28 19:01:00,24.1,16.0,30.37,SW,229,0.0,1.0,72,0.00,,,0.00,weatherlink.com 1.10,2013-11-29 00:01:00,
2013-11-28 19:16:00,23.6,17.0,30.38,SW,229,0.0,0.0,75,0.00,,,0.00,weatherlink.com 1.10,2013-11-29 00:16:00,
2013-11-28 19:31:00,23.5,17.0,30.37,SW,231,1.0,1.0,75,0.00,,,0.00,weatherlink.com 1.10,2013-11-29 00:31:00,
2013-11-28 19:46:00,24.3,18.0,30.38,SW,229,0.0,1.0,76,0.00,,,0.00,weatherlink.com 1.10,2013-11-29 00:46:00,
2013-11-28 20:01:00,24.5,18.0,30.38,ESE,122,0.0,1.0,75,0.00,,,0.00,weatherlink.com 1.10,2013-11-29 01:01:00,
2013-11-28 20:16:00,25.0,18.0,30.39,ESE,111,0.0,1.0,76,0.00,,,0.00,weatherlink.com 1.10,2013-11-29 01:16:00,
2013-11-28 20:31:00,25.0,19.0,30.39,ESE,111,0.0,1.0,79,0.00,,,0.00,weatherlink.com 1.10,2013-11-29 01:31:00,
2013-11-28 20:46:00,24.9,19.0,30.39,ESE,111,0.0,1.0,79,0.00,,,0.00,weatherlink.com 1.10,2013-11-29 01:46:00,
2013-11-28 21:01:00,24.9,19.0,30.40,WSW,257,0.0,2.0,78,0.00,,,0.00,weatherlink.com 1.10,2013-11-29 02:01:00,
2013-11-28 21:16:00,25.1,19.0,30.40,WSW,257,0.0,0.0,77,0.00,,,0.00,weatherlink.com 1.10,2013-11-29 02:16:00,
2013-11-28 21:31:00,25.5,19.0,30.41,WSW,257,0.0,0.0,76,0.00,,,0.00,weatherlink.com 1.10,2013-11-29 02:31:00,
2013-11-28 21:46:00,25.8,20.0,30.41,WSW,257,0.0,0.0,78,0.00,,,0.00,weatherlink.com 1.10,2013-11-29 02:46:00,
2013-11-28 22:01:00,25.9,20.0,30.41,West,265,0.0,1.0,77,0.00,,,0.00,weatherlink.com 1.10,2013-11-29 03:01:00,
2013-11-28 22:16:00,26.0,19.0,30.41,West,265,0.0,0.0,74,0.00,,,0.00,weatherlink.com 1.10,2013-11-29 03:16:00,
2013-11-28 22:31:00,26.5,20.0,30.41,West,265,0.0,0.0,75,0.00,,,0.00,weatherlink.com 1.10,2013-11-29 03:31:00,
2013-11-28 22:46:00,26.6,20.0,30.42,West,265,0.0,0.0,77,0.00,,,0.00,weatherlink.com 1.10,2013-11-29 03:46:00,
2013-11-28 23:01:00,26.7,19.0,30.42,West,266,0.0,0.0,74,0.00,,,0.00,weatherlink.com 1.10,2013-11-29 04:01:00,
2013-11-28 23:16:00,26.7,20.0,30.42,West,265,0.0,0.0,76,0.00,,,0.00,weatherlink.com 1.10,2013-11-29 04:16:00,
2013-11-28 23:31:00,26.9,20.0,30.42,West,265,0.0,0.0,76,0.00,,,0.00,weatherlink.com 1.10,2013-11-29 04:31:00,
2013-11-28 23:46:00,26.9,21.0,30.42,West,265,0.0,0.0,78,0.00,,,0.00,weatherlink.com 1.10,2013-11-29 04:46:00,